Time;durP1;ratioP1;P1;durP2;ratioP2;P2;SDS_P1;SDS_P2;PMS_P1;PMS_P2;Temp;Humidity;BMP_temperature;BMP_pressure;BME280_temperature;BME280_humidity;BME280_pressure;Samples;Min_cycle;Max_cycle;Signal;HPM_P1;HPM_P2
2023/05/31 00:02:15;;;;;;;9.77;3.85;;;12.20;99.90;;;;;;5020221;28;20021;-74
2023/05/31 00:04:41;;;;;;;9.18;3.70;;;12.10;99.90;;;;;;5044556;28;20021;-73
2023/05/31 00:07:07;;;;;;;9.43;3.95;;;12.10;99.90;;;;;;5042928;28;20029;-74
2023/05/31 00:09:33;;;;;;;10.38;4.13;;;12.10;99.90;;;;;;5051424;28;20457;-74
2023/05/31 00:11:59;;;;;;;10.88;3.78;;;12.10;99.90;;;;;;5046215;28;20108;-76
2023/05/31 00:14:25;;;;;;;7.10;3.92;;;12.10;99.90;;;;;;5052385;28;20025;-73
2023/05/31 00:16:51;;;;;;;10.07;4.13;;;12.10;99.90;;;;;;5055679;28;20484;-75
2023/05/31 00:19:17;;;;;;;10.13;4.78;;;12.10;99.90;;;;;;5044394;28;20108;-73
2023/05/31 00:21:45;;;;;;;8.80;4.10;;;12.10;99.90;;;;;;5051955;28;20445;-75
2023/05/31 00:24:16;;;;;;;10.18;4.25;;;12.00;99.90;;;;;;5049024;28;20071;-74
2023/05/31 00:26:41;;;;;;;12.85;4.93;;;12.10;99.90;;;;;;5035725;28;20041;-73
2023/05/31 00:29:07;;;;;;;8.80;4.22;;;12.10;99.90;;;;;;5035260;28;20104;-74
2023/05/31 00:31:32;;;;;;;9.50;4.00;;;12.10;99.90;;;;;;5051849;28;20133;-73
2023/05/31 00:33:58;;;;;;;7.78;4.18;;;12.20;99.90;;;;;;5055141;28;20440;-74
2023/05/31 00:36:24;;;;;;;11.43;4.05;;;12.20;99.90;;;;;;5059251;28;20025;-74
2023/05/31 00:38:49;;;;;;;9.20;4.40;;;12.30;99.90;;;;;;5075323;28;20040;-72
2023/05/31 00:41:15;;;;;;;11.18;4.38;;;12.30;99.90;;;;;;5075206;28;20025;-76
2023/05/31 00:43:41;;;;;;;9.45;3.85;;;12.30;99.90;;;;;;5075298;28;20032;-75
2023/05/31 00:46:11;;;;;;;8.25;4.03;;;12.40;99.90;;;;;;5074617;28;20028;-75
2023/05/31 00:48:38;;;;;;;8.25;4.32;;;12.40;99.90;;;;;;5073721;28;20487;-76
2023/05/31 00:51:05;;;;;;;13.48;5.70;;;12.40;99.90;;;;;;5073497;28;20496;-73
2023/05/31 00:53:31;;;;;;;11.23;5.10;;;12.40;99.90;;;;;;5071465;28;20180;-73
2023/05/31 00:55:59;;;;;;;11.52;4.63;;;12.50;99.90;;;;;;5072282;28;20052;-74
2023/05/31 00:58:26;;;;;;;9.93;4.97;;;12.50;99.90;;;;;;5074003;28;20064;-74
2023/05/31 01:00:52;;;;;;;11.45;5.00;;;12.60;99.90;;;;;;5073514;28;20029;-74
2023/05/31 01:03:20;;;;;;;11.13;4.85;;;12.60;99.90;;;;;;5073365;28;20032;-75
2023/05/31 01:05:46;;;;;;;8.70;4.53;;;12.60;99.90;;;;;;5073122;28;20396;-74
2023/05/31 01:08:14;;;;;;;8.68;4.22;;;12.70;99.90;;;;;;5074132;28;20405;-73
2023/05/31 01:10:40;;;;;;;9.82;4.22;;;12.60;99.90;;;;;;5068446;28;20021;-74
2023/05/31 01:13:16;;;;;;;8.10;4.30;;;12.60;99.90;;;;;;5054975;28;20032;-74
2023/05/31 01:15:50;;;;;;;10.80;4.45;;;12.60;99.90;;;;;;5073968;28;20021;-74
2023/05/31 01:18:37;;;;;;;11.20;4.45;;;12.60;99.90;;;;;;5072654;28;20041;-74
2023/05/31 01:21:05;;;;;;;12.30;4.60;;;12.60;99.90;;;;;;5067343;28;20040;-74
2023/05/31 01:24:16;;;;;;;11.57;4.65;;;12.40;99.90;;;;;;5068939;28;20120;-73
2023/05/31 01:26:49;;;;;;;9.25;4.15;;;12.40;99.90;;;;;;5033173;28;20477;-73
2023/05/31 01:29:21;;;;;;;13.82;5.20;;;12.30;99.90;;;;;;5060016;28;20055;-74
2023/05/31 01:31:48;;;;;;;9.15;4.50;;;12.30;99.90;;;;;;5030046;28;20115;-74
2023/05/31 01:34:14;;;;;;;11.02;4.78;;;12.30;99.90;;;;;;5047546;28;20374;-74
2023/05/31 01:36:39;;;;;;;11.13;5.18;;;12.30;99.90;;;;;;5053305;28;20059;-74
2023/05/31 01:39:06;;;;;;;9.73;4.50;;;12.20;99.90;;;;;;5051672;28;20060;-76
2023/05/31 01:41:37;;;;;;;14.73;4.97;;;12.30;99.90;;;;;;5034903;28;20486;-74
2023/05/31 01:44:04;;;;;;;13.60;5.65;;;12.30;99.90;;;;;;5036823;28;20033;-76
2023/05/31 01:46:30;;;;;;;11.50;4.75;;;12.20;99.90;;;;;;5046697;28;20389;-73
2023/05/31 01:48:56;;;;;;;10.60;5.55;;;12.30;99.90;;;;;;5036920;28;20037;-73
2023/05/31 01:51:23;;;;;;;12.00;5.28;;;12.20;99.90;;;;;;5038976;28;20690;-76
2023/05/31 01:53:49;;;;;;;11.80;5.07;;;12.20;99.90;;;;;;5041989;28;20025;-77
2023/05/31 01:56:15;;;;;;;12.68;5.15;;;12.20;99.90;;;;;;5042766;28;20047;-73
2023/05/31 01:58:47;;;;;;;11.60;4.78;;;12.20;99.90;;;;;;5041787;28;20025;-73
2023/05/31 02:01:12;;;;;;;13.70;5.70;;;12.10;99.90;;;;;;5040696;28;20059;-73
2023/05/31 02:03:39;;;;;;;14.77;5.90;;;12.00;99.90;;;;;;5040141;28;20029;-73
2023/05/31 02:06:05;;;;;;;12.73;5.47;;;12.00;99.90;;;;;;5040804;28;20022;-74
2023/05/31 02:08:31;;;;;;;13.75;5.65;;;11.90;99.90;;;;;;5038736;28;20036;-75
2023/05/31 02:10:56;;;;;;;15.00;6.00;;;11.90;99.90;;;;;;5039929;28;20390;-75
2023/05/31 02:13:27;;;;;;;13.57;5.70;;;11.90;99.90;;;;;;5040017;28;20032;-74
2023/05/31 02:15:54;;;;;;;13.70;5.53;;;11.90;99.90;;;;;;5040311;28;20029;-74
2023/05/31 02:18:21;;;;;;;11.20;5.10;;;11.90;99.90;;;;;;5040951;28;20088;-75
2023/05/31 02:20:47;;;;;;;12.75;5.75;;;11.90;99.90;;;;;;5039336;28;20497;-73
2023/05/31 02:23:13;;;;;;;12.63;5.47;;;11.80;99.90;;;;;;5040068;28;20032;-74
2023/05/31 02:25:40;;;;;;;15.35;5.50;;;11.80;99.90;;;;;;5040449;28;20468;-73
2023/05/31 02:28:06;;;;;;;12.52;4.97;;;11.80;99.90;;;;;;5038956;28;20443;-75
2023/05/31 02:30:31;;;;;;;14.38;5.55;;;11.80;99.90;;;;;;5039558;28;20044;-73
2023/05/31 02:32:59;;;;;;;11.75;4.63;;;11.80;99.90;;;;;;5059515;28;20033;-73
2023/05/31 02:35:25;;;;;;;13.70;6.18;;;11.70;99.90;;;;;;5061115;28;20391;-73
2023/05/31 02:37:51;;;;;;;12.95;5.30;;;11.70;99.90;;;;;;5060239;28;20048;-73
2023/05/31 02:40:16;;;;;;;11.48;5.90;;;11.70;99.90;;;;;;5059796;28;20041;-75
2023/05/31 02:42:42;;;;;;;12.10;5.20;;;11.60;99.90;;;;;;5060803;28;20098;-74
2023/05/31 02:45:09;;;;;;;13.77;5.47;;;11.60;99.90;;;;;;5058313;28;20455;-73
2023/05/31 02:47:39;;;;;;;13.13;5.75;;;11.60;99.90;;;;;;5062494;28;20100;-74
2023/05/31 02:50:07;;;;;;;14.15;5.22;;;11.50;99.90;;;;;;5061937;28;20025;-74
2023/05/31 02:52:33;;;;;;;11.80;5.15;;;11.50;99.90;;;;;;5062505;28;20025;-74
2023/05/31 02:54:59;;;;;;;11.55;5.40;;;11.40;99.90;;;;;;5060665;28;20435;-73
2023/05/31 02:57:25;;;;;;;12.70;5.35;;;11.40;99.90;;;;;;5061162;28;20040;-74
2023/05/31 02:59:57;;;;;;;12.88;5.65;;;11.40;99.90;;;;;;5059888;28;20059;-74
2023/05/31 03:02:24;;;;;;;12.90;5.85;;;11.30;99.90;;;;;;5062541;28;20025;-75
2023/05/31 03:04:50;;;;;;;11.52;5.22;;;11.30;99.90;;;;;;5059209;28;20025;-74
2023/05/31 03:07:16;;;;;;;16.45;6.10;;;11.20;99.90;;;;;;5059976;28;20032;-74
2023/05/31 03:09:42;;;;;;;14.20;5.70;;;11.20;99.90;;;;;;5059438;28;20458;-74
2023/05/31 03:12:07;;;;;;;12.85;5.70;;;11.20;99.90;;;;;;5055235;28;20089;-73
2023/05/31 03:14:33;;;;;;;13.32;6.15;;;11.10;99.90;;;;;;5061988;28;20033;-73
2023/05/31 03:16:59;;;;;;;16.25;5.60;;;11.10;99.90;;;;;;5061055;28;20146;-73
2023/05/31 03:19:25;;;;;;;14.30;6.25;;;11.10;99.90;;;;;;5061741;28;20033;-72
2023/05/31 03:21:50;;;;;;;13.38;5.55;;;11.10;99.90;;;;;;5060353;28;20037;-73
2023/05/31 03:24:16;;;;;;;12.25;5.32;;;11.00;99.90;;;;;;5056368;28;20036;-73
2023/05/31 03:26:41;;;;;;;14.77;5.72;;;11.00;99.90;;;;;;5060934;28;20462;-73
2023/05/31 03:29:07;;;;;;;14.63;5.90;;;11.00;99.90;;;;;;5060925;28;20125;-74
2023/05/31 03:31:33;;;;;;;14.88;5.60;;;11.00;99.90;;;;;;5042268;28;20037;-72
2023/05/31 03:33:59;;;;;;;14.23;5.78;;;10.90;99.90;;;;;;5044747;28;20401;-72
2023/05/31 03:36:24;;;;;;;15.95;6.35;;;10.90;99.90;;;;;;5040377;28;20124;-72
2023/05/31 03:38:50;;;;;;;10.40;5.13;;;10.90;99.90;;;;;;5041403;28;20592;-73
2023/05/31 03:41:16;;;;;;;15.15;5.68;;;10.90;99.90;;;;;;5045678;28;20036;-74
2023/05/31 03:43:42;;;;;;;13.43;5.30;;;10.90;99.90;;;;;;5025512;28;20112;-73
2023/05/31 03:46:07;;;;;;;13.90;5.97;;;10.90;99.90;;;;;;5040462;28;20087;-74
2023/05/31 03:48:33;;;;;;;15.88;6.20;;;10.90;99.90;;;;;;5043984;28;20033;-74
2023/05/31 03:50:59;;;;;;;16.27;6.38;;;10.90;99.90;;;;;;5044905;28;20385;-73
2023/05/31 03:53:25;;;;;;;11.88;5.40;;;10.90;99.90;;;;;;5026454;28;20098;-74
2023/05/31 03:55:51;;;;;;;15.38;5.90;;;10.90;99.90;;;;;;5043281;28;20408;-76
2023/05/31 03:58:17;;;;;;;11.80;5.18;;;10.90;99.90;;;;;;5023137;28;20037;-75
2023/05/31 04:00:43;;;;;;;15.68;5.65;;;10.90;99.90;;;;;;5041724;28;20053;-76
2023/05/31 04:03:11;;;;;;;15.07;5.40;;;10.90;99.90;;;;;;5041584;28;20069;-72
2023/05/31 04:05:38;;;;;;;13.35;5.97;;;11.00;99.90;;;;;;5039880;28;20532;-75
2023/05/31 04:08:04;;;;;;;13.50;5.90;;;11.00;99.90;;;;;;5027301;28;20124;-73
2023/05/31 04:10:30;;;;;;;16.25;5.78;;;11.10;99.90;;;;;;5041948;28;20032;-76
2023/05/31 04:12:56;;;;;;;19.08;5.95;;;11.10;99.90;;;;;;5046135;28;20021;-75
2023/05/31 04:15:22;;;;;;;14.77;5.63;;;11.20;99.90;;;;;;5040731;28;20033;-74
2023/05/31 04:17:47;;;;;;;14.20;5.20;;;11.30;99.90;;;;;;5042434;28;20041;-75
2023/05/31 04:20:13;;;;;;;13.13;4.30;;;11.40;99.90;;;;;;5043609;28;20025;-77
2023/05/31 04:22:39;;;;;;;13.38;4.82;;;11.50;99.90;;;;;;5043372;28;20035;-73
2023/05/31 04:25:05;;;;;;;12.43;5.22;;;11.60;99.90;;;;;;5043155;28;20036;-76
2023/05/31 04:27:32;;;;;;;14.30;5.35;;;11.70;99.90;;;;;;5043998;28;20046;-76
2023/05/31 04:30:00;;;;;;;11.57;4.50;;;11.70;99.90;;;;;;5044611;28;20041;-74
2023/05/31 04:32:27;;;;;;;10.52;4.70;;;11.80;99.90;;;;;;5043095;28;20461;-74
2023/05/31 04:34:57;;;;;;;11.80;4.82;;;11.90;99.90;;;;;;5040617;28;20029;-73
2023/05/31 04:37:28;;;;;;;14.48;5.05;;;12.00;99.90;;;;;;5040250;28;20040;-74
2023/05/31 04:39:54;;;;;;;12.27;5.15;;;12.00;99.90;;;;;;5041345;28;20115;-74
2023/05/31 04:42:20;;;;;;;11.13;5.25;;;12.00;99.90;;;;;;5043876;28;20080;-74
2023/05/31 04:44:45;;;;;;;15.05;4.50;;;12.10;99.90;;;;;;5042570;28;20429;-74
2023/05/31 04:47:12;;;;;;;12.07;4.70;;;12.20;99.90;;;;;;5043118;28;20382;-73
2023/05/31 04:49:37;;;;;;;13.23;5.07;;;12.30;99.90;;;;;;5040071;28;20028;-74
2023/05/31 04:52:03;;;;;;;8.80;4.03;;;12.30;99.90;;;;;;5042970;28;20034;-73
2023/05/31 04:54:29;;;;;;;12.82;4.63;;;12.30;99.90;;;;;;5046235;28;20082;-73
2023/05/31 04:56:55;;;;;;;16.50;5.88;;;12.40;99.90;;;;;;5021824;28;20028;-73
2023/05/31 04:59:20;;;;;;;11.68;4.78;;;12.40;99.90;;;;;;5041066;28;20381;-73
2023/05/31 05:01:47;;;;;;;9.10;3.97;;;12.50;99.90;;;;;;5038532;28;20058;-73
2023/05/31 05:04:13;;;;;;;13.75;5.30;;;12.60;99.90;;;;;;5024130;28;20049;-73
2023/05/31 05:06:41;;;;;;;12.55;5.38;;;12.70;99.90;;;;;;5026106;28;20479;-74
2023/05/31 05:09:06;;;;;;;13.45;5.13;;;12.80;99.90;;;;;;5039559;28;20021;-73
2023/05/31 05:11:32;;;;;;;12.55;4.80;;;12.90;99.90;;;;;;5041436;28;20079;-74
2023/05/31 05:13:57;;;;;;;14.55;5.75;;;12.90;99.90;;;;;;5041368;28;20029;-74
2023/05/31 05:16:23;;;;;;;12.18;5.88;;;13.00;99.90;;;;;;5040498;28;20053;-74
2023/05/31 05:18:49;;;;;;;13.18;5.20;;;13.20;99.90;;;;;;5039469;28;20061;-75
2023/05/31 05:21:15;;;;;;;14.02;5.20;;;13.20;99.90;;;;;;5024360;28;20461;-74
2023/05/31 05:23:41;;;;;;;13.57;5.47;;;13.30;99.90;;;;;;5044528;28;20080;-74
2023/05/31 05:26:06;;;;;;;11.60;5.13;;;13.40;99.90;;;;;;5044327;28;20025;-77
2023/05/31 05:28:32;;;;;;;13.60;5.10;;;13.40;99.90;;;;;;5041233;28;20128;-78
2023/05/31 05:30:57;;;;;;;14.40;4.75;;;13.50;99.90;;;;;;5039054;28;20045;-74
2023/05/31 05:33:23;;;;;;;14.80;4.97;;;13.60;99.90;;;;;;5041490;28;20026;-74
2023/05/31 05:35:51;;;;;;;14.65;5.32;;;13.70;99.90;;;;;;5037895;28;20508;-74
2023/05/31 05:38:17;;;;;;;10.48;4.70;;;13.80;99.90;;;;;;5040369;28;20038;-74
2023/05/31 05:40:43;;;;;;;14.18;5.53;;;14.00;99.90;;;;;;5021017;28;20032;-74
2023/05/31 05:43:09;;;;;;;13.38;5.13;;;14.10;99.90;;;;;;5041542;28;20028;-73
2023/05/31 05:45:34;;;;;;;12.10;5.45;;;14.30;99.90;;;;;;5041542;28;20472;-72
2023/05/31 05:48:00;;;;;;;13.68;5.35;;;14.50;99.90;;;;;;5041438;28;20079;-73
2023/05/31 05:50:26;;;;;;;13.43;5.72;;;14.60;99.90;;;;;;5043391;28;20025;-74
2023/05/31 05:52:51;;;;;;;12.05;5.25;;;14.70;99.90;;;;;;5023497;28;20068;-74
2023/05/31 05:55:19;;;;;;;13.05;5.28;;;14.90;99.90;;;;;;5026651;28;20454;-74
2023/05/31 05:57:44;;;;;;;12.35;5.50;;;15.00;99.90;;;;;;5041528;28;20119;-74
2023/05/31 06:00:11;;;;;;;11.25;5.10;;;15.20;99.90;;;;;;5039148;28;20075;-74
2023/05/31 06:02:38;;;;;;;11.52;5.18;;;15.20;99.90;;;;;;5037885;28;20044;-75
2023/05/31 06:05:04;;;;;;;13.63;5.45;;;15.40;99.90;;;;;;5040315;28;20028;-74
2023/05/31 06:07:30;;;;;;;14.73;6.13;;;15.60;99.90;;;;;;5036732;28;20029;-74
2023/05/31 06:09:56;;;;;;;14.50;5.57;;;16.10;99.90;;;;;;5040566;28;20060;-72
2023/05/31 06:12:22;;;;;;;12.25;5.30;;;17.10;99.90;;;;;;5040955;28;20033;-76
2023/05/31 06:14:48;;;;;;;13.88;5.38;;;17.80;99.90;;;;;;5043689;28;20029;-73
2023/05/31 06:17:13;;;;;;;13.93;4.93;;;18.20;99.90;;;;;;5041438;28;20048;-73
2023/05/31 06:19:40;;;;;;;10.65;4.55;;;18.60;99.90;;;;;;5044349;28;20033;-74
2023/05/31 06:22:06;;;;;;;12.35;5.15;;;18.70;99.90;;;;;;5043215;28;20021;-74
2023/05/31 06:24:31;;;;;;;11.48;5.03;;;18.80;99.90;;;;;;5042386;28;20120;-73
2023/05/31 06:26:57;;;;;;;13.32;5.97;;;19.00;99.90;;;;;;5041448;28;20049;-74
2023/05/31 06:29:22;;;;;;;13.63;5.80;;;19.20;99.90;;;;;;5042750;28;20021;-76
2023/05/31 06:31:48;;;;;;;10.52;4.78;;;19.60;99.90;;;;;;5045210;28;20120;-73
2023/05/31 06:34:13;;;;;;;13.95;5.38;;;19.90;99.90;;;;;;5044477;28;20048;-73
2023/05/31 06:36:40;;;;;;;12.85;5.40;;;20.80;99.90;;;;;;5045480;28;20030;-76
2023/05/31 06:39:06;;;;;;;11.52;4.95;;;21.20;99.90;;;;;;5041172;28;20025;-74
2023/05/31 06:41:34;;;;;;;9.68;5.38;;;21.30;99.90;;;;;;5043932;28;20044;-75
2023/05/31 06:44:02;;;;;;;13.38;6.28;;;21.30;99.90;;;;;;5021477;28;20033;-73
2023/05/31 06:46:28;;;;;;;11.68;5.85;;;21.40;99.90;;;;;;5041469;28;20025;-75
2023/05/31 06:48:54;;;;;;;12.27;5.68;;;21.60;99.90;;;;;;5042648;28;20105;-74
2023/05/31 06:51:22;;;;;;;11.63;5.28;;;22.00;99.60;;;;;;5037994;28;20025;-75
2023/05/31 06:53:48;;;;;;;11.32;5.53;;;22.80;99.10;;;;;;5044086;28;20116;-74
2023/05/31 06:56:14;;;;;;;11.70;6.15;;;23.30;97.50;;;;;;5042385;28;20021;-73
2023/05/31 06:58:41;;;;;;;9.43;5.40;;;23.50;97.10;;;;;;5020000;28;20036;-75
2023/05/31 07:01:06;;;;;;;11.07;5.10;;;23.70;96.60;;;;;;5037069;28;20029;-74
2023/05/31 07:03:32;;;;;;;12.13;5.65;;;23.80;96.50;;;;;;5038042;28;20029;-73
2023/05/31 07:05:58;;;;;;;11.57;5.57;;;24.00;96.20;;;;;;5020401;28;20030;-77
2023/05/31 07:08:23;;;;;;;11.38;5.93;;;23.90;96.00;;;;;;5043819;28;20029;-77
2023/05/31 07:10:49;;;;;;;14.40;6.45;;;24.10;95.80;;;;;;5047369;28;20094;-74
2023/05/31 07:13:15;;;;;;;12.07;5.50;;;24.00;95.60;;;;;;5046404;28;20022;-75
2023/05/31 07:15:40;;;;;;;14.43;6.30;;;23.80;96.00;;;;;;5041133;28;20025;-73
2023/05/31 07:18:06;;;;;;;15.68;7.10;;;23.80;95.80;;;;;;5049993;28;20382;-74
2023/05/31 07:20:31;;;;;;;15.18;5.97;;;23.90;95.80;;;;;;5044276;28;20022;-76
2023/05/31 07:22:57;;;;;;;13.55;5.75;;;24.20;95.80;;;;;;5038085;28;20105;-73
2023/05/31 07:25:23;;;;;;;12.85;5.40;;;24.70;95.20;;;;;;5048568;28;20075;-74
2023/05/31 07:27:49;;;;;;;15.30;6.60;;;25.00;94.80;;;;;;5040926;28;20104;-74
2023/05/31 07:30:14;;;;;;;14.05;6.05;;;24.90;94.60;;;;;;5047652;28;20496;-74
2023/05/31 07:32:40;;;;;;;11.30;5.43;;;24.90;94.40;;;;;;5052570;28;20396;-73
2023/05/31 07:35:06;;;;;;;12.23;6.15;;;24.80;94.30;;;;;;5039666;28;20037;-74
2023/05/31 07:37:32;;;;;;;13.32;6.72;;;24.50;94.60;;;;;;5045572;28;20114;-72
2023/05/31 07:39:58;;;;;;;14.10;6.97;;;24.30;94.80;;;;;;5031959;28;20029;-74
2023/05/31 07:42:23;;;;;;;13.63;5.78;;;24.10;95.10;;;;;;5043274;28;20066;-72
2023/05/31 07:44:49;;;;;;;13.40;6.80;;;24.00;95.20;;;;;;5048774;28;20080;-72
2023/05/31 07:47:15;;;;;;;14.70;7.47;;;23.70;95.60;;;;;;5055235;28;20108;-75
2023/05/31 07:49:41;;;;;;;14.05;6.95;;;23.50;95.90;;;;;;5044816;28;20044;-71
2023/05/31 07:52:07;;;;;;;16.30;7.30;;;23.40;95.90;;;;;;5056385;28;20473;-72
2023/05/31 07:54:32;;;;;;;15.80;6.68;;;23.20;96.10;;;;;;5056180;28;20090;-73
2023/05/31 07:56:58;;;;;;;14.88;6.95;;;23.00;96.50;;;;;;5055681;28;20439;-72
2023/05/31 07:59:24;;;;;;;15.68;6.90;;;22.90;96.70;;;;;;5038113;28;20021;-72
2023/05/31 08:01:50;;;;;;;15.02;6.88;;;22.80;97.10;;;;;;5035695;28;20022;-73
2023/05/31 08:04:16;;;;;;;14.68;7.03;;;22.90;97.00;;;;;;5035509;28;20028;-75
2023/05/31 08:06:44;;;;;;;14.10;6.80;;;23.00;96.80;;;;;;5039817;28;20025;-73
2023/05/31 08:09:09;;;;;;;17.40;6.93;;;23.20;96.60;;;;;;5039293;28;20053;-71
2023/05/31 08:11:36;;;;;;;13.48;6.22;;;23.50;96.20;;;;;;5050192;28;20394;-71
2023/05/31 08:14:03;;;;;;;13.70;6.30;;;23.90;95.80;;;;;;5035765;28;20037;-73
2023/05/31 08:16:29;;;;;;;15.73;6.57;;;24.10;95.50;;;;;;5041126;28;20108;-75
2023/05/31 08:18:55;;;;;;;15.18;7.10;;;24.40;95.00;;;;;;5010029;28;20025;-73
2023/05/31 08:21:20;;;;;;;14.02;6.72;;;24.90;94.30;;;;;;5033962;28;20047;-71
2023/05/31 08:23:46;;;;;;;13.85;6.72;;;25.30;93.70;;;;;;5035544;28;20030;-71
2023/05/31 08:26:12;;;;;;;16.40;6.63;;;25.70;93.50;;;;;;5043343;28;20028;-73
2023/05/31 08:28:37;;;;;;;12.20;6.47;;;26.50;93.00;;;;;;5048997;28;20064;-71
2023/05/31 08:31:03;;;;;;;16.08;6.95;;;27.40;92.10;;;;;;5049721;28;20188;-74
2023/05/31 08:33:30;;;;;;;16.80;7.13;;;28.20;91.00;;;;;;5055237;28;20453;-73
2023/05/31 08:35:59;;;;;;;14.13;6.82;;;28.90;90.30;;;;;;5073027;28;20427;-73
2023/05/31 08:38:28;;;;;;;14.50;6.78;;;29.50;88.10;;;;;;5054477;28;20451;-72
2023/05/31 08:41:00;;;;;;;11.35;6.20;;;29.60;87.30;;;;;;5084602;28;20035;-72
2023/05/31 08:43:27;;;;;;;14.20;6.70;;;29.90;86.60;;;;;;5057004;28;20489;-73
2023/05/31 08:45:55;;;;;;;15.52;6.13;;;30.10;85.00;;;;;;5064391;28;20476;-72
2023/05/31 08:48:49;;;;;;;14.93;6.55;;;29.80;84.70;;;;;;5074914;28;20060;-72
2023/05/31 08:51:15;;;;;;;16.55;6.68;;;29.70;84.60;;;;;;5069986;28;20449;-72
2023/05/31 08:53:42;;;;;;;13.45;6.57;;;29.60;85.00;;;;;;5059939;28;20103;-74
2023/05/31 08:56:09;;;;;;;12.82;6.35;;;29.80;84.30;;;;;;5075764;28;20473;-73
2023/05/31 08:58:36;;;;;;;11.15;5.88;;;29.90;84.80;;;;;;5094784;28;20035;-72
2023/05/31 09:01:05;;;;;;;13.70;6.78;;;30.00;83.50;;;;;;5076000;28;20381;-73
2023/05/31 09:03:32;;;;;;;11.25;6.18;;;30.30;83.30;;;;;;5054645;28;20083;-72
2023/05/31 09:05:58;;;;;;;11.07;6.35;;;30.60;82.70;;;;;;5068926;28;20086;-74
2023/05/31 09:08:24;;;;;;;12.05;6.38;;;30.30;82.40;;;;;;5083518;28;20032;-72
2023/05/31 09:10:50;;;;;;;14.10;6.70;;;30.20;82.20;;;;;;5076819;28;20025;-74
2023/05/31 09:13:16;;;;;;;16.23;6.38;;;30.50;81.80;;;;;;5074840;28;20039;-72
2023/05/31 09:15:43;;;;;;;13.82;6.00;;;30.90;81.20;;;;;;5069133;28;20431;-72
2023/05/31 09:18:19;;;;;;;14.68;6.68;;;31.20;80.20;;;;;;5074564;28;20051;-74
2023/05/31 09:20:47;;;;;;;13.05;6.57;;;31.50;79.70;;;;;;5067850;28;20042;-73
2023/05/31 09:23:13;;;;;;;11.85;6.35;;;32.00;79.40;;;;;;5054492;28;20025;-73
2023/05/31 09:25:46;;;;;;;12.65;6.72;;;32.40;78.60;;;;;;5054324;28;20037;-72
2023/05/31 09:28:12;;;;;;;12.73;6.30;;;32.40;78.00;;;;;;5060099;28;20051;-72
2023/05/31 09:30:38;;;;;;;14.70;6.50;;;32.50;77.60;;;;;;5062715;28;20080;-72
2023/05/31 09:33:04;;;;;;;14.55;6.78;;;32.80;77.00;;;;;;5054001;28;20440;-73
2023/05/31 09:35:30;;;;;;;11.07;5.95;;;32.90;76.20;;;;;;5053514;28;20025;-73
2023/05/31 09:37:56;;;;;;;15.43;6.93;;;32.80;75.70;;;;;;5034147;28;20056;-74
2023/05/31 09:40:30;;;;;;;14.55;6.38;;;33.00;75.30;;;;;;5034385;28;20104;-74
2023/05/31 09:42:56;;;;;;;12.77;6.88;;;33.10;75.30;;;;;;5057725;28;20037;-72
2023/05/31 09:45:22;;;;;;;12.32;6.43;;;33.10;74.80;;;;;;5039903;28;20484;-72
2023/05/31 09:47:48;;;;;;;11.48;6.28;;;33.30;75.00;;;;;;5053342;28;20537;-74
2023/05/31 09:50:22;;;;;;;12.68;6.22;;;33.30;74.40;;;;;;5037142;28;20104;-70
2023/05/31 09:52:51;;;;;;;12.90;5.90;;;33.10;75.00;;;;;;5046548;28;20078;-72
2023/05/31 09:55:17;;;;;;;13.40;6.32;;;33.30;73.20;;;;;;5034068;28;20060;-72
2023/05/31 09:57:44;;;;;;;11.60;6.25;;;33.10;73.90;;;;;;5043282;28;20061;-75
2023/05/31 10:00:18;;;;;;;12.73;6.35;;;32.90;74.30;;;;;;5052268;28;20028;-73
2023/05/31 10:02:46;;;;;;;9.35;5.70;;;32.90;74.20;;;;;;5040788;28;20036;-72
2023/05/31 10:05:12;;;;;;;10.98;6.35;;;32.90;74.40;;;;;;5038313;28;20458;-72
2023/05/31 10:07:42;;;;;;;11.60;6.47;;;33.20;73.70;;;;;;5033188;28;20040;-71
2023/05/31 10:10:09;;;;;;;14.15;7.15;;;33.50;73.80;;;;;;5033831;28;20041;-71
2023/05/31 10:12:58;;;;;;;11.27;6.60;;;33.60;74.00;;;;;;5047866;28;20029;-73
2023/05/31 10:15:25;;;;;;;14.63;7.15;;;33.80;73.60;;;;;;5045147;28;20040;-74
2023/05/31 10:18:16;;;;;;;12.88;7.03;;;33.50;74.10;;;;;;5047226;28;20033;-74
2023/05/31 10:20:58;;;;;;;13.27;7.40;;;33.60;74.20;;;;;;5047560;28;20100;-75
2023/05/31 10:23:26;;;;;;;13.02;6.57;;;33.90;73.40;;;;;;5033775;28;20151;-73
2023/05/31 10:25:59;;;;;;;13.48;6.78;;;34.10;73.50;;;;;;5037753;28;20022;-72
2023/05/31 10:28:28;;;;;;;11.73;6.45;;;34.50;72.70;;;;;;5035154;28;20025;-72
2023/05/31 10:30:55;;;;;;;14.82;7.05;;;34.70;71.50;;;;;;5043832;28;20061;-71
2023/05/31 10:33:25;;;;;;;13.98;6.93;;;34.70;71.60;;;;;;5037090;28;20053;-71
2023/05/31 10:35:51;;;;;;;11.00;6.40;;;34.60;71.70;;;;;;5039452;28;20083;-75
2023/05/31 10:38:24;;;;;;;13.18;5.85;;;34.70;71.30;;;;;;5034420;28;20041;-74
2023/05/31 10:41:01;;;;;;;15.05;7.13;;;35.00;70.50;;;;;;5022169;28;20030;-73
2023/05/31 10:43:39;;;;;;;12.63;6.57;;;35.50;70.50;;;;;;5041342;28;20036;-71
2023/05/31 10:46:26;;;;;;;12.10;6.85;;;35.80;69.30;;;;;;5048854;28;20142;-76
2023/05/31 10:48:53;;;;;;;13.48;6.72;;;35.90;69.20;;;;;;5038566;28;20033;-72
2023/05/31 10:51:19;;;;;;;12.52;6.35;;;35.90;69.10;;;;;;5042482;28;20394;-73
2023/05/31 10:53:46;;;;;;;13.75;6.78;;;35.70;68.60;;;;;;5045158;28;20029;-72
2023/05/31 10:56:13;;;;;;;14.98;7.25;;;35.50;68.60;;;;;;5037893;28;20377;-71
2023/05/31 10:58:42;;;;;;;15.45;7.65;;;35.50;68.60;;;;;;5032456;28;20049;-71
2023/05/31 11:01:18;;;;;;;13.40;6.53;;;35.40;69.30;;;;;;5033030;28;20040;-71
2023/05/31 11:03:53;;;;;;;13.68;7.13;;;35.60;69.30;;;;;;5033038;28;20033;-72
2023/05/31 11:06:33;;;;;;;14.88;6.85;;;35.90;68.30;;;;;;5033539;28;20033;-74
2023/05/31 11:09:11;;;;;;;14.80;7.07;;;36.10;67.90;;;;;;5044244;28;20037;-73
2023/05/31 11:11:39;;;;;;;14.95;8.10;;;36.10;67.80;;;;;;5035497;28;20021;-73
2023/05/31 11:14:06;;;;;;;15.18;7.40;;;35.90;67.90;;;;;;5036014;28;20068;-72
2023/05/31 11:16:34;;;;;;;13.80;8.10;;;35.60;68.30;;;;;;5047030;28;20465;-71
2023/05/31 11:19:07;;;;;;;15.00;7.57;;;35.40;68.00;;;;;;5044362;28;20481;-72
2023/05/31 11:21:58;;;;;;;13.82;7.57;;;35.10;68.50;;;;;;5030286;28;20068;-72
2023/05/31 11:24:44;;;;;;;17.42;8.75;;;35.00;68.40;;;;;;5048228;28;20024;-71
2023/05/31 11:27:13;;;;;;;14.77;7.88;;;35.50;68.60;;;;;;5033234;28;20033;-73
2023/05/31 11:29:48;;;;;;;12.13;7.20;;;35.90;68.00;;;;;;5039580;28;20132;-75
2023/05/31 11:32:17;;;;;;;15.55;8.32;;;35.90;68.10;;;;;;5041048;28;20071;-73
2023/05/31 11:35:00;;;;;;;12.30;7.32;;;35.80;68.30;;;;;;5052114;28;20131;-75
2023/05/31 11:37:33;;;;;;;14.02;7.40;;;35.80;68.50;;;;;;5052843;28;20036;-71
2023/05/31 11:40:07;;;;;;;14.45;7.30;;;35.40;68.30;;;;;;5051459;28;20021;-72
2023/05/31 11:42:37;;;;;;;14.10;6.95;;;35.00;69.10;;;;;;5048787;28;20488;-71
2023/05/31 11:45:06;;;;;;;14.20;7.17;;;34.80;69.20;;;;;;5034425;28;20033;-75
2023/05/31 11:47:44;;;;;;;12.52;5.97;;;34.70;69.60;;;;;;5044442;28;20155;-75
2023/05/31 11:50:17;;;;;;;11.88;6.72;;;34.70;68.50;;;;;;5040175;28;20029;-76
2023/05/31 11:52:42;;;;;;;11.82;6.55;;;34.90;68.70;;;;;;5040730;28;20033;-75
2023/05/31 11:55:09;;;;;;;13.90;6.85;;;34.80;68.60;;;;;;5045670;28;20037;-73
2023/05/31 11:57:44;;;;;;;11.93;5.78;;;34.80;68.60;;;;;;5034391;28;20037;-75
2023/05/31 12:00:14;;;;;;;12.57;5.85;;;34.70;68.40;;;;;;5043202;28;20488;-72
2023/05/31 12:02:41;;;;;;;13.02;5.78;;;34.90;68.20;;;;;;5051837;28;20021;-74
2023/05/31 12:05:16;;;;;;;11.30;6.05;;;35.10;67.70;;;;;;5045806;28;20049;-70
2023/05/31 12:07:43;;;;;;;10.70;5.03;;;35.20;67.90;;;;;;5047278;28;20396;-74
2023/05/31 12:10:09;;;;;;;9.68;5.15;;;35.50;67.10;;;;;;5044529;28;20037;-72
2023/05/31 12:12:35;;;;;;;10.40;5.22;;;35.50;67.00;;;;;;5048959;28;20501;-71
2023/05/31 12:15:02;;;;;;;11.93;5.95;;;35.30;66.70;;;;;;5045016;28;20032;-74
2023/05/31 12:17:34;;;;;;;13.75;6.13;;;35.00;67.30;;;;;;5038942;28;20040;-71
2023/05/31 12:20:00;;;;;;;11.95;5.43;;;34.90;68.00;;;;;;5042405;28;20481;-73
2023/05/31 12:22:26;;;;;;;13.40;6.63;;;35.00;68.10;;;;;;5053325;28;20037;-72
2023/05/31 12:24:54;;;;;;;14.20;6.28;;;35.20;68.10;;;;;;5045176;28;20096;-70
2023/05/31 12:27:22;;;;;;;14.65;6.10;;;35.30;68.10;;;;;;5054423;28;20079;-71
2023/05/31 12:29:47;;;;;;;12.05;5.97;;;35.10;68.20;;;;;;5036369;28;20056;-72
2023/05/31 12:32:13;;;;;;;12.13;5.70;;;34.90;68.50;;;;;;5025482;28;20030;-72
2023/05/31 12:34:39;;;;;;;13.43;6.25;;;34.70;68.60;;;;;;5047718;28;20038;-71
2023/05/31 12:37:06;;;;;;;13.25;6.05;;;34.10;69.00;;;;;;5030969;28;20558;-70
2023/05/31 12:39:33;;;;;;;11.07;5.10;;;33.40;69.50;;;;;;5051171;28;20025;-71
2023/05/31 12:42:00;;;;;;;11.65;5.70;;;32.70;69.90;;;;;;5050093;28;20025;-72